Time;durP1;ratioP1;P1;durP2;ratioP2;P2;SDS_P1;SDS_P2;PMS_P1;PMS_P2;Temp;Humidity;BMP_temperature;BMP_pressure;BME280_temperature;BME280_humidity;BME280_pressure;Samples;Min_cycle;Max_cycle;Signal;HPM_P1;HPM_P2
2021/05/05 00:01:27;;;;;;;1.00;0.80;;;22.00;45.80;;;;;;5109325;28;20384;-41
2021/05/05 00:03:54;;;;;;;1.08;0.98;;;22.00;45.80;;;;;;5100915;28;20040;-40
2021/05/05 00:06:21;;;;;;;1.23;0.90;;;22.00;45.80;;;;;;5108680;28;20058;-41
2021/05/05 00:08:48;;;;;;;1.10;0.82;;;22.00;45.80;;;;;;5109838;28;20495;-40
2021/05/05 00:11:15;;;;;;;1.17;1.00;;;22.00;45.80;;;;;;5110914;28;20044;-40
2021/05/05 00:13:42;;;;;;;0.88;0.80;;;22.00;45.80;;;;;;5109031;28;20164;-41
2021/05/05 00:16:09;;;;;;;1.00;0.90;;;22.00;45.80;;;;;;5110930;28;20552;-40
2021/05/05 00:18:36;;;;;;;0.85;0.75;;;22.00;45.80;;;;;;5110143;28;20466;-40
2021/05/05 00:21:06;;;;;;;0.90;0.80;;;22.00;45.80;;;;;;5110673;28;20135;-40
2021/05/05 00:23:33;;;;;;;0.70;0.70;;;22.00;45.80;;;;;;5110475;28;20055;-40
2021/05/05 00:25:59;;;;;;;0.77;0.65;;;22.00;45.80;;;;;;5109035;28;20051;-41
2021/05/05 00:28:26;;;;;;;0.98;0.88;;;22.00;45.80;;;;;;5110152;28;20449;-40
2021/05/05 00:30:53;;;;;;;0.90;0.70;;;22.00;45.80;;;;;;5115056;27;20048;-40
2021/05/05 00:33:19;;;;;;;1.27;0.90;;;22.00;45.80;;;;;;5113290;28;20067;-41
2021/05/05 00:35:47;;;;;;;1.02;0.90;;;22.00;45.80;;;;;;5113677;28;20077;-40
2021/05/05 00:38:15;;;;;;;1.00;0.80;;;22.00;45.80;;;;;;5113964;28;20048;-41
2021/05/05 00:40:41;;;;;;;1.10;0.95;;;22.00;45.80;;;;;;5112900;28;20483;-40
2021/05/05 00:43:08;;;;;;;1.00;0.82;;;22.00;45.80;;;;;;5114323;28;20075;-40
2021/05/05 00:45:35;;;;;;;1.25;0.98;;;22.00;45.80;;;;;;5113200;27;20085;-40
2021/05/05 00:48:03;;;;;;;1.20;1.00;;;22.00;45.80;;;;;;5113761;28;20123;-43
2021/05/05 00:50:30;;;;;;;0.80;0.80;;;22.00;45.80;;;;;;5113807;28;20070;-40
2021/05/05 00:52:56;;;;;;;1.17;0.82;;;22.00;45.80;;;;;;5112571;27;20081;-42
2021/05/05 00:55:23;;;;;;;1.15;1.05;;;22.00;45.80;;;;;;5114314;27;20066;-42
2021/05/05 00:57:51;;;;;;;1.05;0.73;;;22.00;45.80;;;;;;5113625;28;20097;-41
2021/05/05 01:00:21;;;;;;;1.00;0.82;;;22.00;45.80;;;;;;5112498;28;20089;-43
2021/05/05 01:02:48;;;;;;;1.38;1.00;;;22.00;45.80;;;;;;5114239;28;20441;-42
2021/05/05 01:05:15;;;;;;;1.00;0.88;;;22.00;45.80;;;;;;5113107;28;20067;-40
2021/05/05 01:07:42;;;;;;;0.65;0.57;;;22.00;45.80;;;;;;5113439;27;20100;-41
2021/05/05 01:10:11;;;;;;;0.77;0.60;;;22.00;45.80;;;;;;5114262;28;20492;-41
2021/05/05 01:12:39;;;;;;;1.00;0.77;;;22.00;45.80;;;;;;5111627;28;20127;-41
2021/05/05 01:15:07;;;;;;;1.23;0.70;;;22.00;45.80;;;;;;5103507;28;20416;-41
2021/05/05 01:17:35;;;;;;;0.80;0.73;;;22.00;45.80;;;;;;5113413;28;20051;-41
2021/05/05 01:20:04;;;;;;;0.98;0.80;;;22.00;45.80;;;;;;5112919;28;20074;-44
2021/05/05 01:22:30;;;;;;;1.48;0.80;;;22.00;46.40;;;;;;5114099;28;20093;-41
2021/05/05 01:24:57;;;;;;;0.85;0.70;;;22.00;45.80;;;;;;5112658;28;20070;-40
2021/05/05 01:27:24;;;;;;;1.02;0.70;;;22.00;45.80;;;;;;5112837;28;20056;-44
2021/05/05 01:29:50;;;;;;;1.10;0.90;;;22.00;45.80;;;;;;5114188;27;20056;-40
2021/05/05 01:32:17;;;;;;;0.90;0.70;;;22.00;45.80;;;;;;5112176;27;20071;-40
2021/05/05 01:34:47;;;;;;;0.90;0.80;;;22.00;45.80;;;;;;5103271;28;20047;-41
2021/05/05 01:37:14;;;;;;;1.15;0.80;;;22.00;45.80;;;;;;5113127;28;20047;-43
2021/05/05 01:39:42;;;;;;;1.40;0.90;;;22.00;45.80;;;;;;5109692;28;20067;-41
2021/05/05 01:42:09;;;;;;;1.15;0.80;;;22.00;45.80;;;;;;5113581;28;20112;-42
2021/05/05 01:44:40;;;;;;;0.93;0.70;;;22.00;45.80;;;;;;5112606;28;20044;-42
2021/05/05 01:47:11;;;;;;;1.45;0.80;;;22.00;45.80;;;;;;5111741;28;20051;-47
2021/05/05 01:49:46;;;;;;;0.75;0.70;;;22.00;45.80;;;;;;5113480;28;20472;-41
2021/05/05 01:52:15;;;;;;;1.42;0.93;;;22.00;45.80;;;;;;5112280;28;20126;-40
2021/05/05 01:54:42;;;;;;;1.27;1.10;;;22.00;45.80;;;;;;5112078;27;20522;-44
2021/05/05 01:57:24;;;;;;;1.05;0.90;;;22.00;45.80;;;;;;5101572;28;20093;-43
2021/05/05 01:59:51;;;;;;;1.40;0.98;;;22.00;45.80;;;;;;5111739;28;20415;-43
2021/05/05 02:02:18;;;;;;;1.00;0.80;;;22.00;46.40;;;;;;5111855;27;20536;-44
2021/05/05 02:04:44;;;;;;;0.73;0.70;;;22.00;45.80;;;;;;5112672;28;20468;-41
2021/05/05 02:07:11;;;;;;;1.83;0.90;;;22.00;45.80;;;;;;5110194;28;20121;-42
2021/05/05 02:09:39;;;;;;;1.38;0.82;;;22.00;45.80;;;;;;5113047;28;20127;-41
2021/05/05 02:12:07;;;;;;;0.82;0.70;;;22.00;45.80;;;;;;5112223;28;20104;-41
2021/05/05 02:14:33;;;;;;;0.90;0.73;;;22.00;45.80;;;;;;5099934;28;20143;-41
2021/05/05 02:17:01;;;;;;;1.63;1.00;;;22.00;45.80;;;;;;5112877;28;20481;-42
2021/05/05 02:19:27;;;;;;;0.75;0.75;;;22.00;45.80;;;;;;5111227;28;20095;-40
2021/05/05 02:21:54;;;;;;;0.60;0.60;;;22.00;45.80;;;;;;5112058;28;20052;-40
2021/05/05 02:24:21;;;;;;;0.88;0.80;;;22.00;45.80;;;;;;5112378;28;20091;-44
2021/05/05 02:26:47;;;;;;;1.08;0.70;;;22.00;45.80;;;;;;5110223;28;20478;-44
2021/05/05 02:29:14;;;;;;;0.85;0.80;;;22.00;45.80;;;;;;5111577;28;20123;-41
2021/05/05 02:31:41;;;;;;;1.00;0.82;;;22.00;45.80;;;;;;5111882;28;20048;-42
2021/05/05 02:34:07;;;;;;;1.75;0.90;;;22.00;45.80;;;;;;5110859;28;20124;-43
2021/05/05 02:36:34;;;;;;;1.05;0.82;;;22.00;45.80;;;;;;5112789;27;20048;-42
2021/05/05 02:39:16;;;;;;;0.85;0.80;;;22.00;45.80;;;;;;5111513;27;20047;-45
2021/05/05 02:41:43;;;;;;;1.48;1.00;;;22.00;45.80;;;;;;5111511;28;20047;-41
2021/05/05 02:44:10;;;;;;;0.82;0.75;;;22.00;45.80;;;;;;5112380;28;20472;-45
2021/05/05 02:46:37;;;;;;;0.80;0.73;;;22.00;45.80;;;;;;5110853;28;20092;-41
2021/05/05 02:49:06;;;;;;;0.80;0.80;;;22.00;45.80;;;;;;5101274;28;20707;-42
2021/05/05 02:51:34;;;;;;;1.00;0.90;;;21.90;45.80;;;;;;5111098;28;20525;-41
2021/05/05 02:54:00;;;;;;;0.80;0.80;;;22.00;45.80;;;;;;5110584;28;20556;-41
2021/05/05 02:56:27;;;;;;;1.08;0.82;;;21.90;45.70;;;;;;5110891;28;20071;-46
2021/05/05 02:58:54;;;;;;;1.10;0.80;;;22.00;45.80;;;;;;5110974;28;20141;-41
2021/05/05 03:01:21;;;;;;;0.70;0.70;;;22.00;45.80;;;;;;5110650;28;20085;-41
2021/05/05 03:03:48;;;;;;;0.98;0.88;;;21.90;45.80;;;;;;5111535;28;20039;-40
2021/05/05 03:06:15;;;;;;;1.20;0.98;;;22.00;45.80;;;;;;5110952;28;20097;-40
2021/05/05 03:08:41;;;;;;;0.93;0.80;;;21.90;45.70;;;;;;5109558;28;20134;-41
2021/05/05 03:11:08;;;;;;;0.77;0.65;;;22.00;45.80;;;;;;5112003;28;20457;-40
2021/05/05 03:13:35;;;;;;;1.25;0.90;;;22.00;45.80;;;;;;5110202;28;20079;-41
2021/05/05 03:16:03;;;;;;;1.15;1.05;;;22.00;45.80;;;;;;5110219;28;20047;-42
2021/05/05 03:18:30;;;;;;;0.93;0.93;;;21.90;45.70;;;;;;5111380;28;20146;-40
2021/05/05 03:20:58;;;;;;;1.38;1.00;;;22.00;45.80;;;;;;5109938;27;20122;-42
2021/05/05 03:23:27;;;;;;;1.00;0.90;;;22.00;45.80;;;;;;5111482;28;20461;-41
2021/05/05 03:25:53;;;;;;;0.98;0.88;;;21.90;45.80;;;;;;5110750;28;20040;-40
2021/05/05 03:28:20;;;;;;;1.20;0.98;;;21.90;45.70;;;;;;5110313;27;20384;-40
2021/05/05 03:30:47;;;;;;;1.27;0.90;;;22.00;45.80;;;;;;5099834;28;20086;-41
2021/05/05 03:33:14;;;;;;;1.25;0.90;;;22.00;45.80;;;;;;5109867;28;20044;-40
2021/05/05 03:35:42;;;;;;;1.35;0.90;;;21.90;45.70;;;;;;5111302;27;20054;-41
2021/05/05 03:38:08;;;;;;;0.95;0.80;;;22.00;45.80;;;;;;5110855;28;20043;-41
2021/05/05 03:40:35;;;;;;;0.85;0.70;;;22.00;45.80;;;;;;5109589;28;20454;-40
2021/05/05 03:43:02;;;;;;;1.10;0.90;;;22.00;45.80;;;;;;5110652;28;20044;-40
2021/05/05 03:45:30;;;;;;;1.00;0.75;;;21.90;45.70;;;;;;5109949;28;20112;-41
2021/05/05 03:47:58;;;;;;;0.75;0.75;;;22.00;45.80;;;;;;5110188;28;20121;-41
2021/05/05 03:50:26;;;;;;;1.40;0.80;;;21.90;45.80;;;;;;5111393;28;20055;-41
2021/05/05 03:52:57;;;;;;;1.75;0.90;;;22.00;45.80;;;;;;5109847;28;20039;-41
2021/05/05 03:55:24;;;;;;;1.10;1.00;;;22.00;45.80;;;;;;5100249;28;20112;-41
2021/05/05 03:57:50;;;;;;;1.50;0.80;;;22.00;45.80;;;;;;5111369;28;20168;-40
2021/05/05 04:00:17;;;;;;;1.00;0.90;;;21.90;45.70;;;;;;5108740;28;20044;-42
2021/05/05 04:02:44;;;;;;;1.10;0.93;;;22.00;45.80;;;;;;5110718;28;20043;-39
2021/05/05 04:05:12;;;;;;;1.00;0.90;;;22.00;45.80;;;;;;5114687;28;20376;-40
2021/05/05 04:07:38;;;;;;;1.30;1.08;;;21.90;45.70;;;;;;5113383;27;20407;-40
2021/05/05 04:10:07;;;;;;;1.40;0.90;;;22.00;45.80;;;;;;5115363;28;20101;-41
2021/05/05 04:12:34;;;;;;;1.02;0.93;;;22.00;45.80;;;;;;5114065;28;20580;-40
2021/05/05 04:15:19;;;;;;;0.95;0.80;;;22.00;45.80;;;;;;5113649;27;20135;-40
2021/05/05 04:18:04;;;;;;;1.00;0.80;;;22.00;45.80;;;;;;5115812;27;20419;-42
2021/05/05 04:20:49;;;;;;;0.77;0.70;;;21.90;45.80;;;;;;5113734;28;20046;-40
2021/05/05 04:23:35;;;;;;;0.93;0.80;;;21.90;45.70;;;;;;5113302;28;20093;-41
2021/05/05 04:26:17;;;;;;;0.90;0.80;;;22.00;45.80;;;;;;5114986;27;20040;-43
2021/05/05 04:28:45;;;;;;;0.63;0.60;;;22.00;45.80;;;;;;5087078;28;20059;-41
2021/05/05 04:31:12;;;;;;;1.00;0.90;;;21.90;45.80;;;;;;5112841;28;20448;-41
2021/05/05 04:33:41;;;;;;;0.88;0.75;;;22.00;45.80;;;;;;5115026;27;20039;-41
2021/05/05 04:36:08;;;;;;;0.80;0.80;;;22.00;45.80;;;;;;5102349;28;20101;-40
2021/05/05 04:38:34;;;;;;;1.10;0.80;;;22.00;45.80;;;;;;5113542;28;20591;-40
2021/05/05 04:41:01;;;;;;;0.93;0.73;;;22.00;45.80;;;;;;5114394;28;20059;-43
2021/05/05 04:43:28;;;;;;;1.38;1.00;;;22.00;45.80;;;;;;5113294;27;20096;-40
2021/05/05 04:45:54;;;;;;;0.90;0.80;;;21.90;45.70;;;;;;5114144;27;20050;-40
2021/05/05 04:48:21;;;;;;;1.33;1.00;;;22.00;45.80;;;;;;5113847;28;20072;-41
2021/05/05 04:50:48;;;;;;;0.90;0.80;;;22.00;45.80;;;;;;5112529;28;20499;-41
2021/05/05 04:53:14;;;;;;;1.08;0.82;;;22.00;45.80;;;;;;5114125;28;20475;-41
2021/05/05 04:55:41;;;;;;;0.88;0.70;;;22.00;45.80;;;;;;5113509;28;20127;-41
2021/05/05 04:58:07;;;;;;;1.05;0.95;;;21.90;45.70;;;;;;5113942;27;20040;-40
2021/05/05 05:00:34;;;;;;;1.83;1.10;;;22.00;45.80;;;;;;5114004;28;20047;-41
2021/05/05 05:03:01;;;;;;;1.00;0.90;;;22.00;45.80;;;;;;5112666;28;20122;-40
2021/05/05 05:05:29;;;;;;;1.35;0.80;;;22.00;45.80;;;;;;5113410;27;20403;-42
2021/05/05 05:07:55;;;;;;;1.10;0.90;;;22.00;45.70;;;;;;5102448;28;20560;-41
2021/05/05 05:10:22;;;;;;;1.00;0.80;;;22.00;45.70;;;;;;5111677;28;20051;-40
2021/05/05 05:12:49;;;;;;;1.38;0.95;;;22.00;45.70;;;;;;5114460;27;20055;-40
2021/05/05 05:15:15;;;;;;;0.80;0.80;;;22.00;45.70;;;;;;5112860;28;20051;-40
2021/05/05 05:17:42;;;;;;;1.00;0.90;;;22.00;45.70;;;;;;5112053;28;20134;-40
2021/05/05 05:20:09;;;;;;;0.77;0.70;;;22.00;45.70;;;;;;5114357;28;20384;-40
2021/05/05 05:22:36;;;;;;;0.85;0.75;;;22.00;45.70;;;;;;5112681;28;20035;-41
2021/05/05 05:25:09;;;;;;;0.70;0.70;;;22.00;45.70;;;;;;5112843;27;20050;-40
2021/05/05 05:27:37;;;;;;;0.98;0.88;;;22.00;45.70;;;;;;5114090;28;20055;-40
2021/05/05 05:30:07;;;;;;;1.33;1.00;;;22.00;45.70;;;;;;5112079;28;20467;-40
2021/05/05 05:32:34;;;;;;;0.98;0.73;;;22.00;45.70;;;;;;5113122;28;20098;-40
2021/05/05 05:35:01;;;;;;;1.17;0.80;;;22.00;45.70;;;;;;5112677;28;20048;-41
2021/05/05 05:37:29;;;;;;;1.45;0.93;;;22.00;46.30;;;;;;5112159;28;20040;-41
2021/05/05 05:39:58;;;;;;;0.85;0.80;;;22.00;45.70;;;;;;5113388;27;20047;-42
2021/05/05 05:42:25;;;;;;;0.90;0.80;;;22.00;45.70;;;;;;5099939;28;20051;-40
2021/05/05 05:44:52;;;;;;;1.33;1.00;;;22.00;45.60;;;;;;5111699;28;20148;-40
2021/05/05 05:47:18;;;;;;;1.00;0.90;;;22.00;45.60;;;;;;5113134;28;20123;-41
2021/05/05 05:49:45;;;;;;;0.98;0.90;;;22.00;45.70;;;;;;5111648;28;20096;-41
2021/05/05 05:52:12;;;;;;;0.90;0.77;;;22.00;46.30;;;;;;5112923;27;20462;-40
2021/05/05 05:54:39;;;;;;;1.15;0.80;;;22.00;45.70;;;;;;5112843;28;20075;-40
2021/05/05 05:57:05;;;;;;;1.38;0.90;;;22.00;45.70;;;;;;5111859;27;20572;-41
2021/05/05 05:59:32;;;;;;;1.45;0.80;;;22.00;45.60;;;;;;5111942;28;20046;-41
2021/05/05 06:01:59;;;;;;;1.38;0.95;;;22.00;45.70;;;;;;5111745;28;20126;-40
2021/05/05 06:04:25;;;;;;;1.02;0.90;;;22.00;45.60;;;;;;5112136;28;21265;-40
2021/05/05 06:06:52;;;;;;;1.10;1.00;;;22.00;45.70;;;;;;5113040;28;20453;-40
2021/05/05 06:09:18;;;;;;;1.30;0.85;;;22.00;45.60;;;;;;5111003;28;20517;-41
2021/05/05 06:11:45;;;;;;;1.10;0.90;;;22.00;45.60;;;;;;5102675;28;20044;-41
2021/05/05 06:14:14;;;;;;;0.80;0.80;;;22.00;45.60;;;;;;5111683;28;20051;-41
2021/05/05 06:16:41;;;;;;;0.80;0.80;;;22.00;45.60;;;;;;5110977;28;20039;-41
2021/05/05 06:19:07;;;;;;;0.90;0.80;;;22.00;45.60;;;;;;5112207;27;20043;-39
2021/05/05 06:21:34;;;;;;;1.40;0.80;;;22.00;45.60;;;;;;5112037;27;20040;-39
2021/05/05 06:24:01;;;;;;;0.85;0.85;;;22.00;45.60;;;;;;5100924;28;20384;-39
2021/05/05 06:26:27;;;;;;;1.33;0.80;;;22.00;45.60;;;;;;5111160;28;20130;-39
2021/05/05 06:28:56;;;;;;;1.10;0.90;;;22.00;46.00;;;;;;5110990;28;20100;-41
2021/05/05 06:31:23;;;;;;;1.17;0.95;;;22.00;45.70;;;;;;5111652;28;20051;-40
2021/05/05 06:33:49;;;;;;;1.15;0.88;;;22.00;45.60;;;;;;5102646;28;20101;-40
2021/05/05 06:36:16;;;;;;;1.10;0.93;;;22.00;45.70;;;;;;5110547;28;20093;-41
2021/05/05 06:38:43;;;;;;;1.10;1.00;;;22.00;45.70;;;;;;5112208;28;20127;-40
2021/05/05 06:41:09;;;;;;;0.60;0.60;;;22.00;45.60;;;;;;5111730;28;20044;-41
2021/05/05 06:43:36;;;;;;;1.10;1.00;;;22.00;45.60;;;;;;5110493;28;20100;-40
2021/05/05 06:46:03;;;;;;;1.00;0.90;;;22.00;45.60;;;;;;5112677;28;20477;-41
2021/05/05 06:48:30;;;;;;;0.95;0.80;;;22.00;45.70;;;;;;5111146;27;20138;-39
2021/05/05 06:50:57;;;;;;;1.58;0.90;;;22.00;45.70;;;;;;5110442;28;20096;-41
2021/05/05 06:53:24;;;;;;;1.02;0.80;;;22.00;45.60;;;;;;5112152;28;20644;-40
2021/05/05 06:55:51;;;;;;;1.00;0.90;;;22.00;45.70;;;;;;5110785;28;20043;-40
2021/05/05 06:58:19;;;;;;;1.25;0.88;;;22.00;45.70;;;;;;5100881;28;20043;-41
2021/05/05 07:00:46;;;;;;;1.08;0.70;;;22.00;45.70;;;;;;5111571;28;20047;-44
2021/05/05 07:03:13;;;;;;;1.40;1.17;;;22.00;45.70;;;;;;5110699;28;20126;-42
2021/05/05 07:05:39;;;;;;;1.10;1.00;;;22.00;45.70;;;;;;5111774;28;20156;-41
2021/05/05 07:08:06;;;;;;;0.85;0.80;;;22.10;45.80;;;;;;5110130;28;20147;-44
2021/05/05 07:10:33;;;;;;;0.85;0.82;;;22.00;45.70;;;;;;5111308;28;20097;-40
2021/05/05 07:12:59;;;;;;;1.30;0.98;;;22.00;45.70;;;;;;5112206;28;20087;-41
2021/05/05 07:15:26;;;;;;;0.93;0.70;;;22.00;45.70;;;;;;5088461;28;20167;-40
2021/05/05 07:17:53;;;;;;;1.95;0.98;;;22.00;45.70;;;;;;5090596;28;20128;-45
2021/05/05 07:20:20;;;;;;;1.40;0.95;;;22.00;45.70;;;;;;5091352;28;20075;-42
2021/05/05 07:22:46;;;;;;;1.08;0.95;;;22.00;45.70;;;;;;5090776;28;20043;-43
2021/05/05 07:25:13;;;;;;;1.52;1.10;;;22.10;45.80;;;;;;5090521;28;20048;-45
2021/05/05 07:27:40;;;;;;;0.85;0.77;;;22.00;45.70;;;;;;5089709;28;20079;-41
2021/05/05 07:30:13;;;;;;;0.90;0.82;;;22.10;45.80;;;;;;5089882;28;20080;-43
2021/05/05 07:32:40;;;;;;;1.25;0.80;;;22.00;45.70;;;;;;5091008;28;20510;-42
2021/05/05 07:35:10;;;;;;;1.63;1.15;;;22.00;45.70;;;;;;5089315;28;20488;-40
2021/05/05 07:41:23;;;;;;;1.27;0.70;;;22.10;45.70;;;;;;5088524;28;20076;-40
2021/05/05 07:46:02;;;;;;;1.60;1.00;;;22.10;45.70;;;;;;5090245;28;20109;-41
2021/05/05 07:48:36;;;;;;;0.98;0.90;;;22.10;45.60;;;;;;5090554;28;20104;-39
2021/05/05 07:51:03;;;;;;;1.13;0.90;;;22.10;45.60;;;;;;5088380;28;20407;-43
2021/05/05 07:53:48;;;;;;;1.17;0.98;;;22.10;45.60;;;;;;5088879;28;20035;-39
2021/05/05 07:56:33;;;;;;;1.30;0.88;;;22.10;45.80;;;;;;5090714;28;20118;-41
2021/05/05 07:59:18;;;;;;;1.38;1.00;;;22.10;45.60;;;;;;5089608;28;20143;-44
2021/05/05 08:01:46;;;;;;;1.75;1.20;;;22.10;45.50;;;;;;5088384;28;20399;-40
2021/05/05 08:04:13;;;;;;;1.30;1.10;;;22.10;45.50;;;;;;5089503;28;20051;-40
2021/05/05 08:06:40;;;;;;;1.02;0.88;;;22.10;45.50;;;;;;5088005;28;20126;-40
2021/05/05 08:09:06;;;;;;;1.02;0.90;;;22.10;45.50;;;;;;5087738;28;20052;-39
2021/05/05 08:11:33;;;;;;;1.00;0.90;;;22.10;45.50;;;;;;5091164;28;20078;-40
2021/05/05 08:13:59;;;;;;;1.20;1.02;;;22.10;45.50;;;;;;5096655;28;20059;-39
2021/05/05 08:16:26;;;;;;;1.52;1.10;;;22.10;45.50;;;;;;5110304;28;20043;-40
2021/05/05 08:18:52;;;;;;;1.02;0.90;;;22.10;45.50;;;;;;5110202;28;20142;-40
2021/05/05 08:21:20;;;;;;;1.10;1.00;;;22.10;45.40;;;;;;5109271;28;20517;-40
2021/05/05 08:23:47;;;;;;;1.10;1.00;;;22.10;45.40;;;;;;5110224;28;20420;-41
2021/05/05 08:26:13;;;;;;;0.80;0.80;;;22.10;45.50;;;;;;5110883;28;20040;-41
2021/05/05 08:28:41;;;;;;;1.45;1.10;;;22.10;45.40;;;;;;5099367;28;20102;-41
2021/05/05 08:31:12;;;;;;;1.10;0.93;;;22.10;45.50;;;;;;5110640;28;20495;-41
2021/05/05 08:33:39;;;;;;;1.67;1.05;;;22.10;45.50;;;;;;5110559;28;20044;-41
2021/05/05 08:36:06;;;;;;;1.30;1.02;;;22.10;45.50;;;;;;5110502;28;20100;-41
2021/05/05 08:38:33;;;;;;;1.00;0.90;;;22.10;45.50;;;;;;5109841;28;20135;-41
2021/05/05 08:40:59;;;;;;;1.13;1.00;;;22.10;45.60;;;;;;5109314;28;20054;-40
2021/05/05 08:43:26;;;;;;;0.82;0.70;;;22.10;45.60;;;;;;5109730;28;20169;-40
2021/05/05 08:45:58;;;;;;;1.65;1.20;;;22.10;45.60;;;;;;5110209;28;20070;-40
2021/05/05 08:48:25;;;;;;;1.25;1.00;;;22.10;45.60;;;;;;5108859;28;20047;-40
2021/05/05 08:50:52;;;;;;;1.70;1.00;;;22.10;45.60;;;;;;5113482;28;20074;-41
2021/05/05 08:53:18;;;;;;;1.08;0.90;;;22.10;45.60;;;;;;5113037;28;20050;-41
2021/05/05 08:55:45;;;;;;;1.15;0.90;;;22.10;45.70;;;;;;5113611;28;20097;-40
2021/05/05 08:58:12;;;;;;;1.70;0.90;;;22.10;45.60;;;;;;5103405;28;20131;-42
2021/05/05 09:00:39;;;;;;;0.90;0.80;;;22.10;45.70;;;;;;5111882;28;20039;-41
2021/05/05 09:03:07;;;;;;;1.33;1.10;;;22.10;45.70;;;;;;5114439;27;20048;-40
2021/05/05 09:05:54;;;;;;;0.82;0.80;;;22.00;45.60;;;;;;5113907;28;20071;-40
2021/05/05 09:08:22;;;;;;;1.67;1.02;;;22.10;45.70;;;;;;5112005;28;20067;-40
2021/05/05 09:11:07;;;;;;;1.20;1.05;;;22.00;45.60;;;;;;5113184;28;20127;-42
2021/05/05 09:13:45;;;;;;;0.80;0.77;;;22.00;45.70;;;;;;5101901;28;20192;-41
2021/05/05 09:16:15;;;;;;;1.08;0.80;;;22.00;45.70;;;;;;5111032;27;20048;-40
2021/05/05 09:18:57;;;;;;;2.40;0.90;;;22.00;45.70;;;;;;5113802;27;20047;-40
2021/05/05 09:21:42;;;;;;;0.80;0.70;;;22.00;45.70;;;;;;5112986;28;20530;-40
2021/05/05 09:24:20;;;;;;;1.10;0.88;;;22.00;45.70;;;;;;5111921;28;20467;-40
2021/05/05 09:26:50;;;;;;;1.38;1.10;;;22.00;45.80;;;;;;5113397;27;20039;-40
2021/05/05 09:29:20;;;;;;;1.08;0.82;;;22.00;45.70;;;;;;5113908;28;20062;-40
2021/05/05 09:31:47;;;;;;;1.10;0.80;;;22.00;45.70;;;;;;5112291;28;20098;-40
2021/05/05 09:34:14;;;;;;;1.10;0.80;;;22.00;45.80;;;;;;5112687;28;20043;-40
2021/05/05 09:37:01;;;;;;;1.20;0.85;;;22.00;45.80;;;;;;5112967;28;20106;-41
2021/05/05 09:39:33;;;;;;;1.10;0.70;;;22.00;45.80;;;;;;5099927;28;20047;-40
2021/05/05 09:42:00;;;;;;;1.50;0.90;;;22.00;45.80;;;;;;5113880;27;20055;-41
2021/05/05 09:44:27;;;;;;;1.50;0.93;;;22.00;45.80;;;;;;5112701;28;20495;-43
2021/05/05 09:46:57;;;;;;;0.80;0.80;;;22.00;45.80;;;;;;5111081;28;20058;-42
2021/05/05 09:49:33;;;;;;;1.38;1.00;;;22.00;45.80;;;;;;5112668;28;20087;-42
2021/05/05 09:52:00;;;;;;;1.50;1.10;;;22.00;45.80;;;;;;5112061;28;20130;-40
2021/05/05 09:54:32;;;;;;;1.10;0.95;;;22.00;45.80;;;;;;5111597;27;20052;-41
2021/05/05 09:57:34;;;;;;;1.23;1.10;;;22.00;45.80;;;;;;5112908;28;20052;-40
2021/05/05 10:00:08;;;;;;;1.10;1.00;;;22.00;45.80;;;;;;5109008;28;20048;-41
2021/05/05 10:02:50;;;;;;;1.00;0.90;;;22.00;45.80;;;;;;5110611;27;20044;-41
2021/05/05 10:05:19;;;;;;;1.27;1.10;;;22.00;45.80;;;;;;5112123;28;20047;-41
2021/05/05 10:08:00;;;;;;;0.98;0.85;;;22.00;45.80;;;;;;5111725;28;20036;-40
2021/05/05 10:10:30;;;;;;;0.80;0.70;;;22.00;45.80;;;;;;5111767;28;20464;-40
2021/05/05 10:12:59;;;;;;;2.03;0.90;;;22.00;45.80;;;;;;5112672;28;20070;-42
2021/05/05 10:15:27;;;;;;;1.20;1.02;;;22.00;45.80;;;;;;5111446;28;20043;-41
2021/05/05 10:17:54;;;;;;;0.93;0.77;;;22.00;45.80;;;;;;5110706;28;20116;-41
2021/05/05 10:20:24;;;;;;;2.05;0.95;;;22.00;45.80;;;;;;5101162;28;20093;-41
2021/05/05 10:22:56;;;;;;;1.15;1.00;;;22.00;45.80;;;;;;5111239;28;20091;-41
2021/05/05 10:25:23;;;;;;;1.40;1.05;;;22.00;45.80;;;;;;5111177;28;20475;-42
2021/05/05 10:27:51;;;;;;;1.33;0.90;;;22.00;45.80;;;;;;5112917;28;20069;-41
2021/05/05 10:30:22;;;;;;;0.90;0.77;;;22.00;45.80;;;;;;5110488;28;20120;-41
2021/05/05 10:33:15;;;;;;;1.17;1.00;;;22.00;45.80;;;;;;5111359;27;20130;-44
2021/05/05 10:35:41;;;;;;;0.95;0.70;;;22.00;45.80;;;;;;5112534;28;20130;-42
2021/05/05 10:38:08;;;;;;;1.17;1.00;;;22.00;45.80;;;;;;5110322;27;20039;-42
2021/05/05 10:40:36;;;;;;;0.88;0.73;;;22.00;45.80;;;;;;5112257;27;20048;-44
2021/05/05 10:43:05;;;;;;;2.05;0.90;;;22.00;45.80;;;;;;5111781;28;20047;-41
2021/05/05 10:45:43;;;;;;;1.27;1.10;;;22.00;45.70;;;;;;5109399;28;20100;-41
2021/05/05 10:48:17;;;;;;;1.27;0.95;;;22.00;45.80;;;;;;5112144;28;20047;-41
2021/05/05 10:50:55;;;;;;;1.10;1.00;;;22.00;45.70;;;;;;5110710;28;20059;-40
2021/05/05 10:53:28;;;;;;;1.85;1.05;;;22.00;45.70;;;;;;5110017;28;20079;-40
2021/05/05 10:56:00;;;;;;;1.13;0.90;;;22.00;45.80;;;;;;5111870;27;20499;-44
2021/05/05 10:58:31;;;;;;;0.70;0.70;;;22.00;45.70;;;;;;5110970;28;20075;-39
2021/05/05 11:01:03;;;;;;;1.38;0.93;;;22.00;45.70;;;;;;5110114;28;20471;-40
2021/05/05 11:03:42;;;;;;;1.92;1.05;;;22.00;45.70;;;;;;5112034;27;20039;-39
2021/05/05 11:06:30;;;;;;;0.85;0.80;;;22.00;45.70;;;;;;5111228;28;20077;-41
2021/05/05 11:09:17;;;;;;;2.45;1.13;;;22.00;45.80;;;;;;5109029;28;20146;-41
2021/05/05 11:11:46;;;;;;;0.95;0.80;;;22.00;45.70;;;;;;5111091;28;20040;-39
2021/05/05 11:14:45;;;;;;;1.05;0.90;;;22.00;45.80;;;;;;5110626;27;20063;-40
2021/05/05 11:17:14;;;;;;;1.15;0.82;;;22.00;45.80;;;;;;5086569;28;20047;-42
2021/05/05 11:19:41;;;;;;;0.82;0.80;;;22.00;45.80;;;;;;5111276;28;20046;-40
2021/05/05 11:22:17;;;;;;;1.08;0.60;;;22.00;45.80;;;;;;5111269;28;20051;-41
2021/05/05 11:24:46;;;;;;;1.13;0.90;;;22.00;45.80;;;;;;5110299;28;20044;-40
2021/05/05 11:27:14;;;;;;;0.93;0.82;;;22.00;45.80;;;;;;5110746;28;20044;-40
2021/05/05 11:29:48;;;;;;;1.10;0.90;;;22.00;45.80;;;;;;5110014;28;20160;-39
2021/05/05 11:32:24;;;;;;;1.02;0.82;;;22.00;45.80;;;;;;5110559;28;20051;-41
2021/05/05 11:34:56;;;;;;;1.60;1.00;;;22.00;45.80;;;;;;5111046;28;20108;-41
2021/05/05 11:37:23;;;;;;;0.98;0.80;;;22.00;45.80;;;;;;5110187;28;20112;-40
2021/05/05 11:39:52;;;;;;;0.90;0.80;;;22.00;45.80;;;;;;5109645;28;20043;-42
2021/05/05 11:42:26;;;;;;;1.08;0.90;;;22.00;45.80;;;;;;5110733;28;20048;-41
2021/05/05 11:45:14;;;;;;;1.10;1.00;;;22.00;45.80;;;;;;5109971;28;20062;-41
2021/05/05 11:47:46;;;;;;;1.00;0.90;;;22.00;45.80;;;;;;5109298;28;20082;-42
2021/05/05 11:50:20;;;;;;;0.70;0.70;;;22.00;46.40;;;;;;5111213;28;20388;-39
2021/05/05 11:52:50;;;;;;;0.75;0.75;;;22.00;45.80;;;;;;5110569;28;20077;-39
2021/05/05 11:55:20;;;;;;;1.17;0.77;;;22.00;45.80;;;;;;5082976;28;20051;-39
2021/05/05 11:57:52;;;;;;;1.10;0.90;;;22.00;45.80;;;;;;5111652;28;20461;-43
2021/05/05 12:00:33;;;;;;;1.17;0.73;;;22.00;45.80;;;;;;5109222;28;20075;-39
2021/05/05 12:03:02;;;;;;;1.20;0.80;;;22.00;45.80;;;;;;5109987;28;20040;-39
2021/05/05 12:05:29;;;;;;;1.38;0.90;;;22.00;45.80;;;;;;5111063;28;20453;-40
2021/05/05 12:08:15;;;;;;;1.02;0.90;;;22.00;45.80;;;;;;5109472;28;20043;-39
2021/05/05 12:10:48;;;;;;;1.02;0.93;;;22.00;45.80;;;;;;5110668;28;20043;-40
2021/05/05 12:13:20;;;;;;;1.10;0.90;;;22.00;45.80;;;;;;5110200;28;20518;-40
2021/05/05 12:16:00;;;;;;;1.13;1.02;;;22.00;45.80;;;;;;5109398;28;20188;-41
2021/05/05 12:18:35;;;;;;;2.47;1.13;;;22.00;45.80;;;;;;5100906;28;20044;-40
2021/05/05 12:21:11;;;;;;;1.02;0.93;;;22.00;45.80;;;;;;5111090;28;20040;-44
2021/05/05 12:23:40;;;;;;;1.10;1.00;;;22.00;45.80;;;;;;5109192;28;20128;-40
2021/05/05 12:26:25;;;;;;;;;;;22.00;46.40;;;;;;5115174;28;20039;-45
2021/05/05 12:28:54;;;;;;;1.30;0.80;;;22.00;45.80;;;;;;5114931;28;19969;-47
2021/05/05 12:31:23;;;;;;;0.95;0.90;;;22.00;45.90;;;;;;5112956;27;20043;-42
2021/05/05 12:33:52;;;;;;;0.82;0.73;;;22.00;45.90;;;;;;5114162;28;20051;-45
2021/05/05 12:36:22;;;;;;;1.15;0.80;;;22.00;45.90;;;;;;5113787;28;20051;-45
2021/05/05 12:38:51;;;;;;;1.08;0.95;;;22.00;45.80;;;;;;5112895;28;20035;-43
2021/05/05 12:41:24;;;;;;;0.82;0.82;;;22.00;45.80;;;;;;5113918;28;20043;-44
2021/05/05 12:43:53;;;;;;;1.45;1.08;;;22.00;45.90;;;;;;5114089;28;20044;-44
2021/05/05 12:46:31;;;;;;;1.42;0.95;;;22.00;45.90;;;;;;5113096;28;20399;-43
2021/05/05 12:49:02;;;;;;;1.75;0.93;;;22.00;45.80;;;;;;5113613;28;20043;-42
2021/05/05 12:51:37;;;;;;;1.02;0.80;;;22.00;45.80;;;;;;5114000;28;20052;-40
2021/05/05 12:54:05;;;;;;;1.15;0.93;;;22.00;45.90;;;;;;5113245;27;20054;-40
2021/05/05 12:56:37;;;;;;;1.00;0.90;;;22.00;45.90;;;;;;5113984;28;20051;-40
2021/05/05 12:59:05;;;;;;;1.02;0.93;;;22.00;45.80;;;;;;5113206;28;20494;-40
2021/05/05 13:01:32;;;;;;;0.95;0.80;;;22.00;46.40;;;;;;5103452;28;20078;-40
2021/05/05 13:04:01;;;;;;;1.20;0.93;;;22.00;45.80;;;;;;5114617;28;20092;-40
2021/05/05 13:06:48;;;;;;;0.82;0.70;;;22.00;45.80;;;;;;5112249;27;20047;-40